TVF31FD LFLL-LFMN
Flight info
| Callsign | TVF31FD |
|---|---|
| Flight time | 0h 33m |
| Altitude | 27000 |
| Route | ROMAM T43 BEPER DCT XIRBI |
| Aircraft | B738/M-SDE2E3FGHIRWXY/LB1 |
Departure
| Time | 2026-05-01 14:44 |
|---|---|
| Airport | Lyon Saint-Exupéry Airport (LFLL) |
Arrival
| Time | 2026-05-01 15:18 |
|---|---|
| Airport | Nice-Côte d'Azur Airport (LFMN) |
| Time | Latitude | Longitude | Altitude | Speed | Heading |
|---|---|---|---|---|---|
| 2026-05-01 14:14 | 45.71586 | 5.08323 | 801 ft | 0 kts | 195° |
| 2026-05-01 14:34 | 45.71601 | 5.08329 | 801 ft | 4 kts | 191° |
| 2026-05-01 14:34 | 45.71628 | 5.08334 | 801 ft | 4 kts | 180° |
| 2026-05-01 14:34 | 45.71654 | 5.08330 | 801 ft | 4 kts | 159° |
| 2026-05-01 14:34 | 45.71673 | 5.08311 | 801 ft | 4 kts | 104° |
| 2026-05-01 14:35 | 45.71675 | 5.08301 | 801 ft | 1 kts | 85° |
| 2026-05-01 14:38 | 45.71677 | 5.08332 | 801 ft | 4 kts | 85° |
| 2026-05-01 14:39 | 45.71680 | 5.08380 | 801 ft | 5 kts | 85° |
| 2026-05-01 14:39 | 45.71684 | 5.08429 | 802 ft | 5 kts | 76° |
| 2026-05-01 14:39 | 45.71708 | 5.08472 | 802 ft | 7 kts | 35° |
| 2026-05-01 14:39 | 45.71764 | 5.08482 | 802 ft | 11 kts | 357° |
| 2026-05-01 14:40 | 45.71860 | 5.08470 | 802 ft | 17 kts | 354° |
| 2026-05-01 14:40 | 45.71994 | 5.08454 | 802 ft | 22 kts | 355° |
| 2026-05-01 14:40 | 45.72165 | 5.08433 | 801 ft | 27 kts | 355° |
| 2026-05-01 14:40 | 45.72351 | 5.08409 | 801 ft | 26 kts | 354° |
| 2026-05-01 14:41 | 45.72526 | 5.08389 | 801 ft | 24 kts | 355° |
| 2026-05-01 14:41 | 45.72690 | 5.08370 | 801 ft | 23 kts | 355° |
| 2026-05-01 14:41 | 45.72847 | 5.08350 | 801 ft | 22 kts | 355° |
| 2026-05-01 14:41 | 45.72999 | 5.08330 | 801 ft | 22 kts | 354° |
| 2026-05-01 14:42 | 45.73147 | 5.08313 | 801 ft | 21 kts | 356° |
| 2026-05-01 14:42 | 45.73291 | 5.08295 | 801 ft | 20 kts | 355° |
| 2026-05-01 14:42 | 45.73428 | 5.08279 | 801 ft | 20 kts | 355° |
| 2026-05-01 14:42 | 45.73564 | 5.08263 | 801 ft | 19 kts | 355° |
| 2026-05-01 14:43 | 45.73687 | 5.08288 | 801 ft | 18 kts | 34° |
| 2026-05-01 14:43 | 45.73716 | 5.08448 | 800 ft | 18 kts | 105° |
| 2026-05-01 14:43 | 45.73685 | 5.08621 | 792 ft | 20 kts | 103° |
| 2026-05-01 14:43 | 45.73583 | 5.08726 | 792 ft | 20 kts | 175° |
| 2026-05-01 14:44 | 45.73226 | 5.08769 | 798 ft | 94 kts | 175° |
| 2026-05-01 14:44 | 45.71050 | 5.09046 | 1492 ft | 195 kts | 172° |
| 2026-05-01 14:44 | 45.69715 | 5.09229 | 2732 ft | 185 kts | 176° |
| 2026-05-01 14:45 | 45.68367 | 5.09371 | 3512 ft | 206 kts | 175° |
| 2026-05-01 14:45 | 45.65258 | 5.09752 | 4330 ft | 233 kts | 176° |
| 2026-05-01 14:45 | 45.63620 | 5.09956 | 5032 ft | 238 kts | 175° |
| 2026-05-01 14:46 | 45.61929 | 5.10163 | 5564 ft | 253 kts | 175° |
| 2026-05-01 14:46 | 45.58331 | 5.10593 | 7002 ft | 262 kts | 175° |
| 2026-05-01 14:46 | 45.56488 | 5.10812 | 7659 ft | 268 kts | 175° |
| 2026-05-01 14:47 | 45.54604 | 5.11039 | 8282 ft | 276 kts | 175° |
| 2026-05-01 14:47 | 45.52679 | 5.11270 | 9021 ft | 279 kts | 175° |
| 2026-05-01 14:47 | 45.50747 | 5.11501 | 9899 ft | 276 kts | 175° |
| 2026-05-01 14:48 | 45.46778 | 5.11975 | 10765 ft | 306 kts | 175° |
| 2026-05-01 14:48 | 45.44582 | 5.12233 | 10954 ft | 327 kts | 175° |
| 2026-05-01 14:48 | 45.39905 | 5.12783 | 12018 ft | 341 kts | 175° |
| 2026-05-01 14:49 | 45.35193 | 5.13342 | 13526 ft | 345 kts | 175° |
| 2026-05-01 14:49 | 45.30344 | 5.13921 | 14813 ft | 352 kts | 175° |
| 2026-05-01 14:50 | 45.27080 | 5.14309 | 15790 ft | 356 kts | 175° |
| 2026-05-01 14:50 | 45.20381 | 5.15105 | 17470 ft | 367 kts | 175° |
| 2026-05-01 14:51 | 45.17829 | 5.15408 | 18165 ft | 369 kts | 175° |
| 2026-05-01 14:51 | 45.12697 | 5.16017 | 19339 ft | 376 kts | 175° |
| 2026-05-01 14:52 | 45.07425 | 5.16634 | 20394 ft | 384 kts | 175° |
| 2026-05-01 14:52 | 45.04757 | 5.16940 | 20977 ft | 386 kts | 176° |
| 2026-05-01 14:52 | 44.99351 | 5.17559 | 21958 ft | 393 kts | 176° |
| 2026-05-01 14:53 | 44.96612 | 5.17873 | 22433 ft | 398 kts | 176° |
| 2026-05-01 14:53 | 44.93873 | 5.18187 | 22888 ft | 401 kts | 176° |
| 2026-05-01 14:53 | 44.91089 | 5.18502 | 23472 ft | 403 kts | 176° |
| 2026-05-01 14:53 | 44.88279 | 5.18811 | 23872 ft | 407 kts | 177° |
| 2026-05-01 14:54 | 44.83955 | 5.19285 | 24377 ft | 415 kts | 176° |
| 2026-05-01 14:54 | 44.72309 | 5.20568 | 26207 ft | 418 kts | 177° |
| 2026-05-01 14:54 | 44.60758 | 5.21931 | 27557 ft | 428 kts | 175° |
| 2026-05-01 14:54 | 44.48614 | 5.24383 | 27367 ft | 446 kts | 173° |
| 2026-05-01 14:55 | 44.36637 | 5.27035 | 27161 ft | 427 kts | 161° |
| 2026-05-01 14:55 | 44.27700 | 5.37180 | 27278 ft | 416 kts | 142° |
| 2026-05-01 14:55 | 44.23096 | 5.42135 | 27271 ft | 410 kts | 144° |
| 2026-05-01 14:55 | 44.20831 | 5.44513 | 26937 ft | 405 kts | 144° |
| 2026-05-01 14:56 | 44.17755 | 5.47808 | 26436 ft | 399 kts | 144° |
| 2026-05-01 14:56 | 44.13408 | 5.52518 | 25643 ft | 393 kts | 144° |
| 2026-05-01 14:56 | 44.09129 | 5.57152 | 24859 ft | 386 kts | 144° |
| 2026-05-01 14:56 | 44.04914 | 5.61705 | 24093 ft | 380 kts | 144° |
| 2026-05-01 14:57 | 44.00765 | 5.66178 | 23235 ft | 375 kts | 143° |
| 2026-05-01 14:57 | 43.92726 | 5.74823 | 21605 ft | 361 kts | 142° |
| 2026-05-01 14:57 | 43.88794 | 5.79041 | 20844 ft | 354 kts | 142° |
| 2026-05-01 14:58 | 43.84920 | 5.83187 | 20082 ft | 349 kts | 142° |
| 2026-05-01 14:58 | 43.81094 | 5.87270 | 19341 ft | 345 kts | 142° |
| 2026-05-01 14:58 | 43.78983 | 5.89518 | 18946 ft | 343 kts | 142° |
| 2026-05-01 14:58 | 43.77096 | 5.91528 | 18586 ft | 341 kts | 141° |
| 2026-05-01 14:59 | 43.75220 | 5.93524 | 18174 ft | 339 kts | 142° |
| 2026-05-01 14:59 | 43.73358 | 5.95504 | 17780 ft | 336 kts | 142° |
| 2026-05-01 14:59 | 43.71537 | 5.97439 | 17411 ft | 334 kts | 142° |
| 2026-05-01 14:59 | 43.69702 | 5.99388 | 17050 ft | 331 kts | 142° |
| 2026-05-01 15:00 | 43.66074 | 6.03239 | 16355 ft | 325 kts | 141° |
| 2026-05-01 15:00 | 43.64288 | 6.05131 | 16036 ft | 322 kts | 141° |
| 2026-05-01 15:00 | 43.62519 | 6.07003 | 15692 ft | 320 kts | 141° |
| 2026-05-01 15:01 | 43.60750 | 6.08882 | 15231 ft | 322 kts | 140° |
| 2026-05-01 15:01 | 43.59311 | 6.11181 | 14692 ft | 325 kts | 118° |
| 2026-05-01 15:01 | 43.58420 | 6.14036 | 14307 ft | 324 kts | 110° |
| 2026-05-01 15:01 | 43.57631 | 6.16956 | 13862 ft | 324 kts | 109° |
| 2026-05-01 15:02 | 43.56863 | 6.19844 | 13602 ft | 319 kts | 109° |
| 2026-05-01 15:02 | 43.56604 | 6.20812 | 13493 ft | 317 kts | 109° |
| 2026-05-01 15:02 | 43.55339 | 6.25497 | 12958 ft | 312 kts | 110° |
| 2026-05-01 15:02 | 43.54578 | 6.28282 | 12430 ft | 311 kts | 110° |
| 2026-05-01 15:03 | 43.53815 | 6.31059 | 12052 ft | 307 kts | 110° |
| 2026-05-01 15:03 | 43.53062 | 6.33787 | 11689 ft | 302 kts | 110° |
| 2026-05-01 15:03 | 43.52330 | 6.36440 | 11285 ft | 299 kts | 109° |
| 2026-05-01 15:03 | 43.51588 | 6.39125 | 10885 ft | 298 kts | 109° |
| 2026-05-01 15:04 | 43.50856 | 6.41759 | 10672 ft | 292 kts | 109° |
| 2026-05-01 15:04 | 43.49929 | 6.44206 | 10472 ft | 289 kts | 128° |
| 2026-05-01 15:04 | 43.48578 | 6.46192 | 10385 ft | 280 kts | 131° |
| 2026-05-01 15:04 | 43.47227 | 6.48088 | 10176 ft | 276 kts | 130° |
| 2026-05-01 15:05 | 43.45888 | 6.49981 | 9874 ft | 275 kts | 131° |
| 2026-05-01 15:05 | 43.44563 | 6.51868 | 9594 ft | 274 kts | 131° |
| 2026-05-01 15:05 | 43.43262 | 6.53730 | 9303 ft | 273 kts | 130° |
| 2026-05-01 15:05 | 43.41950 | 6.55613 | 9033 ft | 272 kts | 131° |
| 2026-05-01 15:06 | 43.40642 | 6.57494 | 8753 ft | 272 kts | 131° |
| 2026-05-01 15:06 | 43.39334 | 6.59375 | 8462 ft | 272 kts | 131° |
| 2026-05-01 15:06 | 43.38032 | 6.61239 | 8347 ft | 269 kts | 131° |
| 2026-05-01 15:06 | 43.36730 | 6.63086 | 8196 ft | 271 kts | 131° |
| 2026-05-01 15:07 | 43.35401 | 6.64981 | 7873 ft | 275 kts | 131° |
| 2026-05-01 15:07 | 43.34160 | 6.66931 | 7637 ft | 267 kts | 116° |
| 2026-05-01 15:07 | 43.33536 | 6.69265 | 7470 ft | 258 kts | 102° |
| 2026-05-01 15:07 | 43.33145 | 6.71649 | 7292 ft | 255 kts | 95° |
| 2026-05-01 15:08 | 43.33390 | 6.73977 | 7122 ft | 251 kts | 65° |
| 2026-05-01 15:08 | 43.34138 | 6.76135 | 6977 ft | 252 kts | 63° |
| 2026-05-01 15:08 | 43.34897 | 6.78331 | 6704 ft | 258 kts | 64° |
| 2026-05-01 15:08 | 43.35644 | 6.80584 | 6443 ft | 258 kts | 65° |
| 2026-05-01 15:09 | 43.36358 | 6.82822 | 6221 ft | 254 kts | 66° |
| 2026-05-01 15:09 | 43.37044 | 6.85032 | 6027 ft | 249 kts | 66° |
| 2026-05-01 15:09 | 43.37705 | 6.87206 | 5830 ft | 244 kts | 66° |
| 2026-05-01 15:09 | 43.38347 | 6.89346 | 5639 ft | 240 kts | 67° |
| 2026-05-01 15:10 | 43.38972 | 6.91447 | 5443 ft | 235 kts | 67° |
| 2026-05-01 15:10 | 43.40168 | 6.95503 | 5078 ft | 226 kts | 67° |
| 2026-05-01 15:10 | 43.40751 | 6.97491 | 4901 ft | 221 kts | 67° |
| 2026-05-01 15:11 | 43.41317 | 6.99428 | 4721 ft | 216 kts | 67° |
| 2026-05-01 15:11 | 43.42404 | 7.03153 | 4374 ft | 201 kts | 69° |
| 2026-05-01 15:11 | 43.42912 | 7.04896 | 4228 ft | 191 kts | 68° |
| 2026-05-01 15:12 | 43.43406 | 7.06593 | 4110 ft | 192 kts | 69° |
| 2026-05-01 15:12 | 43.44382 | 7.09954 | 3820 ft | 188 kts | 69° |
| 2026-05-01 15:12 | 43.44865 | 7.11618 | 3665 ft | 186 kts | 69° |
| 2026-05-01 15:13 | 43.46890 | 7.15945 | 3324 ft | 193 kts | 24° |
| 2026-05-01 15:14 | 43.49632 | 7.16039 | 3318 ft | 201 kts | 2° |
| 2026-05-01 15:14 | 43.51035 | 7.15900 | 3298 ft | 205 kts | 2° |
| 2026-05-01 15:14 | 43.53953 | 7.15614 | 2710 ft | 212 kts | 2° |
| 2026-05-01 15:15 | 43.56857 | 7.15337 | 2214 ft | 212 kts | 0° |
| 2026-05-01 15:15 | 43.59953 | 7.14892 | 1448 ft | 236 kts | 359° |
| 2026-05-01 15:16 | 43.62768 | 7.16129 | 1121 ft | 206 kts | 50° |
| 2026-05-01 15:16 | 43.64419 | 7.19242 | 247 ft | 191 kts | 49° |
| 2026-05-01 15:17 | 43.66030 | 7.21563 | 20 ft | 105 kts | 46° |
| 2026-05-01 15:18 | 43.66514 | 7.21920 | 21 ft | 13 kts | 224° |